sensor_id;sensor_type;location;lat;lon;timestamp;temperature;humidity
25652;DHT22;13508;50.734;4.232;2023-11-19T00:00:08;13.70;99.90
25652;DHT22;13508;50.734;4.232;2023-11-19T00:03:17;13.70;99.90
25652;DHT22;13508;50.734;4.232;2023-11-19T00:06:20;13.60;99.90
25652;DHT22;13508;50.734;4.232;2023-11-19T00:09:26;13.70;99.90
25652;DHT22;13508;50.734;4.232;2023-11-19T00:12:29;13.70;99.90
25652;DHT22;13508;50.734;4.232;2023-11-19T00:15:32;13.70;99.90
25652;DHT22;13508;50.734;4.232;2023-11-19T00:18:36;13.70;99.90
25652;DHT22;13508;50.734;4.232;2023-11-19T00:21:42;13.70;99.90
25652;DHT22;13508;50.734;4.232;2023-11-19T00:24:46;13.60;99.90
25652;DHT22;13508;50.734;4.232;2023-11-19T00:27:51;13.70;99.90
25652;DHT22;13508;50.734;4.232;2023-11-19T00:30:54;13.70;99.90
25652;DHT22;13508;50.734;4.232;2023-11-19T00:33:58;13.70;99.90
25652;DHT22;13508;50.734;4.232;2023-11-19T00:37:04;13.70;99.90
25652;DHT22;13508;50.734;4.232;2023-11-19T00:40:07;13.80;99.90
25652;DHT22;13508;50.734;4.232;2023-11-19T00:43:13;13.70;99.90
25652;DHT22;13508;50.734;4.232;2023-11-19T00:46:17;13.80;99.90
25652;DHT22;13508;50.734;4.232;2023-11-19T00:49:22;13.70;99.90
25652;DHT22;13508;50.734;4.232;2023-11-19T00:52:29;13.80;99.90
25652;DHT22;13508;50.734;4.232;2023-11-19T00:55:32;13.80;99.90
25652;DHT22;13508;50.734;4.232;2023-11-19T00:58:36;13.80;99.90
25652;DHT22;13508;50.734;4.232;2023-11-19T01:01:40;13.70;99.90
25652;DHT22;13508;50.734;4.232;2023-11-19T01:04:44;13.70;99.90
25652;DHT22;13508;50.734;4.232;2023-11-19T01:07:48;13.70;99.90
25652;DHT22;13508;50.734;4.232;2023-11-19T01:10:52;13.70;99.90
25652;DHT22;13508;50.734;4.232;2023-11-19T01:13:56;13.70;99.90
25652;DHT22;13508;50.734;4.232;2023-11-19T01:16:59;13.70;99.90
25652;DHT22;13508;50.734;4.232;2023-11-19T01:20:04;13.60;99.90
25652;DHT22;13508;50.734;4.232;2023-11-19T01:23:09;13.70;99.90
25652;DHT22;13508;50.734;4.232;2023-11-19T01:26:13;13.50;99.90
25652;DHT22;13508;50.734;4.232;2023-11-19T01:29:17;13.50;99.90
25652;DHT22;13508;50.734;4.232;2023-11-19T01:32:20;13.50;99.90
25652;DHT22;13508;50.734;4.232;2023-11-19T01:35:24;13.50;99.90
25652;DHT22;13508;50.734;4.232;2023-11-19T01:38:27;13.60;99.90
25652;DHT22;13508;50.734;4.232;2023-11-19T01:41:35;13.60;99.90
25652;DHT22;13508;50.734;4.232;2023-11-19T01:44:39;13.60;99.90
25652;DHT22;13508;50.734;4.232;2023-11-19T01:47:42;13.70;99.90
25652;DHT22;13508;50.734;4.232;2023-11-19T01:50:46;13.70;99.90
25652;DHT22;13508;50.734;4.232;2023-11-19T01:53:50;13.60;99.90
25652;DHT22;13508;50.734;4.232;2023-11-19T01:56:56;13.60;99.90
25652;DHT22;13508;50.734;4.232;2023-11-19T02:00:01;13.60;99.90
25652;DHT22;13508;50.734;4.232;2023-11-19T02:03:06;13.60;99.90
25652;DHT22;13508;50.734;4.232;2023-11-19T02:06:13;13.60;99.90
25652;DHT22;13508;50.734;4.232;2023-11-19T02:09:19;13.50;99.90
25652;DHT22;13508;50.734;4.232;2023-11-19T02:12:25;13.50;99.90
25652;DHT22;13508;50.734;4.232;2023-11-19T02:15:28;13.50;99.90
25652;DHT22;13508;50.734;4.232;2023-11-19T02:18:32;13.50;99.90
25652;DHT22;13508;50.734;4.232;2023-11-19T02:21:35;13.50;99.90
25652;DHT22;13508;50.734;4.232;2023-11-19T02:24:39;13.40;99.90
25652;DHT22;13508;50.734;4.232;2023-11-19T02:30:49;13.40;99.90
25652;DHT22;13508;50.734;4.232;2023-11-19T02:33:53;13.50;99.90
25652;DHT22;13508;50.734;4.232;2023-11-19T02:36:57;13.60;99.90
25652;DHT22;13508;50.734;4.232;2023-11-19T02:40:01;13.50;99.90
25652;DHT22;13508;50.734;4.232;2023-11-19T02:43:06;13.50;99.90
25652;DHT22;13508;50.734;4.232;2023-11-19T02:46:10;13.50;99.90
25652;DHT22;13508;50.734;4.232;2023-11-19T02:49:14;13.40;99.90
25652;DHT22;13508;50.734;4.232;2023-11-19T02:52:18;13.40;99.90
25652;DHT22;13508;50.734;4.232;2023-11-19T02:55:22;13.30;99.90
25652;DHT22;13508;50.734;4.232;2023-11-19T02:58:30;13.20;99.90
25652;DHT22;13508;50.734;4.232;2023-11-19T03:01:36;13.20;99.90
25652;DHT22;13508;50.734;4.232;2023-11-19T03:04:40;13.10;99.90
25652;DHT22;13508;50.734;4.232;2023-11-19T03:07:44;13.00;99.90
25652;DHT22;13508;50.734;4.232;2023-11-19T03:10:48;13.00;99.90
25652;DHT22;13508;50.734;4.232;2023-11-19T03:13:52;13.00;99.90
25652;DHT22;13508;50.734;4.232;2023-11-19T03:16:58;12.80;99.90
25652;DHT22;13508;50.734;4.232;2023-11-19T03:20:04;12.90;99.90
25652;DHT22;13508;50.734;4.232;2023-11-19T03:23:12;12.80;99.90
25652;DHT22;13508;50.734;4.232;2023-11-19T03:26:18;12.80;99.90
25652;DHT22;13508;50.734;4.232;2023-11-19T03:29:22;12.70;99.90
25652;DHT22;13508;50.734;4.232;2023-11-19T03:32:26;12.70;99.90
25652;DHT22;13508;50.734;4.232;2023-11-19T03:35:30;12.70;99.90
25652;DHT22;13508;50.734;4.232;2023-11-19T03:38:34;12.70;99.90
25652;DHT22;13508;50.734;4.232;2023-11-19T03:41:38;12.70;99.90
25652;DHT22;13508;50.734;4.232;2023-11-19T03:44:41;12.70;99.90
25652;DHT22;13508;50.734;4.232;2023-11-19T03:47:45;12.70;99.90
25652;DHT22;13508;50.734;4.232;2023-11-19T03:50:48;12.70;99.90
25652;DHT22;13508;50.734;4.232;2023-11-19T03:53:52;12.70;99.90
25652;DHT22;13508;50.734;4.232;2023-11-19T03:56:55;12.70;99.90
25652;DHT22;13508;50.734;4.232;2023-11-19T03:59:59;12.80;99.90
25652;DHT22;13508;50.734;4.232;2023-11-19T04:03:05;12.80;99.90
25652;DHT22;13508;50.734;4.232;2023-11-19T04:06:11;12.90;99.90
25652;DHT22;13508;50.734;4.232;2023-11-19T04:09:14;12.90;99.90
25652;DHT22;13508;50.734;4.232;2023-11-19T04:12:18;12.90;99.90
25652;DHT22;13508;50.734;4.232;2023-11-19T04:15:22;12.80;99.90
25652;DHT22;13508;50.734;4.232;2023-11-19T04:18:26;12.70;99.90
25652;DHT22;13508;50.734;4.232;2023-11-19T04:21:32;12.70;99.90
25652;DHT22;13508;50.734;4.232;2023-11-19T04:24:35;12.70;99.90
25652;DHT22;13508;50.734;4.232;2023-11-19T04:27:39;12.70;99.90
25652;DHT22;13508;50.734;4.232;2023-11-19T04:30:42;12.70;99.90
25652;DHT22;13508;50.734;4.232;2023-11-19T04:33:46;12.70;99.90
25652;DHT22;13508;50.734;4.232;2023-11-19T04:36:50;12.70;99.90
25652;DHT22;13508;50.734;4.232;2023-11-19T04:39:54;12.70;99.90
25652;DHT22;13508;50.734;4.232;2023-11-19T04:42:57;12.70;99.90
25652;DHT22;13508;50.734;4.232;2023-11-19T04:46:04;12.70;99.90
25652;DHT22;13508;50.734;4.232;2023-11-19T04:49:07;12.70;99.90
25652;DHT22;13508;50.734;4.232;2023-11-19T04:52:11;12.60;99.90
25652;DHT22;13508;50.734;4.232;2023-11-19T04:55:15;12.50;99.90
25652;DHT22;13508;50.734;4.232;2023-11-19T04:58:18;12.60;99.90
25652;DHT22;13508;50.734;4.232;2023-11-19T05:01:22;12.60;99.90
25652;DHT22;13508;50.734;4.232;2023-11-19T05:04:25;12.50;99.90
25652;DHT22;13508;50.734;4.232;2023-11-19T05:07:32;12.50;99.90
25652;DHT22;13508;50.734;4.232;2023-11-19T05:10:38;12.50;99.90
25652;DHT22;13508;50.734;4.232;2023-11-19T05:13:41;12.50;99.90
25652;DHT22;13508;50.734;4.232;2023-11-19T05:16:45;12.50;99.90
25652;DHT22;13508;50.734;4.232;2023-11-19T05:19:48;12.60;99.90
25652;DHT22;13508;50.734;4.232;2023-11-19T05:22:52;12.60;99.90
25652;DHT22;13508;50.734;4.232;2023-11-19T05:25:56;12.60;99.90
25652;DHT22;13508;50.734;4.232;2023-11-19T05:29:01;12.60;99.90
25652;DHT22;13508;50.734;4.232;2023-11-19T05:32:05;12.60;99.90
25652;DHT22;13508;50.734;4.232;2023-11-19T05:35:09;12.60;99.90
25652;DHT22;13508;50.734;4.232;2023-11-19T05:38:13;12.70;99.90
25652;DHT22;13508;50.734;4.232;2023-11-19T05:41:21;12.60;99.90
25652;DHT22;13508;50.734;4.232;2023-11-19T05:44:26;12.50;99.90
25652;DHT22;13508;50.734;4.232;2023-11-19T05:47:30;12.40;99.90
25652;DHT22;13508;50.734;4.232;2023-11-19T05:50:34;12.40;99.90
25652;DHT22;13508;50.734;4.232;2023-11-19T05:53:37;12.30;99.90
25652;DHT22;13508;50.734;4.232;2023-11-19T05:56:48;12.20;99.90
25652;DHT22;13508;50.734;4.232;2023-11-19T05:59:54;12.20;99.90
25652;DHT22;13508;50.734;4.232;2023-11-19T06:02:58;12.20;99.90
25652;DHT22;13508;50.734;4.232;2023-11-19T06:06:02;12.10;99.90
25652;DHT22;13508;50.734;4.232;2023-11-19T06:09:05;12.00;99.90
25652;DHT22;13508;50.734;4.232;2023-11-19T06:12:09;12.10;99.90
25652;DHT22;13508;50.734;4.232;2023-11-19T06:15:12;12.00;99.90
25652;DHT22;13508;50.734;4.232;2023-11-19T06:18:19;11.90;99.90
25652;DHT22;13508;50.734;4.232;2023-11-19T06:21:22;11.90;99.90
25652;DHT22;13508;50.734;4.232;2023-11-19T06:24:26;11.80;99.90
25652;DHT22;13508;50.734;4.232;2023-11-19T06:27:29;11.80;99.90
25652;DHT22;13508;50.734;4.232;2023-11-19T06:30:37;11.80;99.90
25652;DHT22;13508;50.734;4.232;2023-11-19T06:33:40;11.90;99.90
25652;DHT22;13508;50.734;4.232;2023-11-19T06:36:43;11.80;99.90
25652;DHT22;13508;50.734;4.232;2023-11-19T06:39:47;11.80;99.90
25652;DHT22;13508;50.734;4.232;2023-11-19T06:42:50;11.80;99.90
25652;DHT22;13508;50.734;4.232;2023-11-19T06:45:55;11.80;99.90
25652;DHT22;13508;50.734;4.232;2023-11-19T06:49:00;11.80;99.90
25652;DHT22;13508;50.734;4.232;2023-11-19T06:52:04;11.80;99.90
25652;DHT22;13508;50.734;4.232;2023-11-19T06:55:08;11.80;99.90
25652;DHT22;13508;50.734;4.232;2023-11-19T06:58:12;11.70;99.90
25652;DHT22;13508;50.734;4.232;2023-11-19T07:01:16;11.70;99.90
25652;DHT22;13508;50.734;4.232;2023-11-19T07:04:19;11.70;99.90
25652;DHT22;13508;50.734;4.232;2023-11-19T07:07:23;11.70;99.90
25652;DHT22;13508;50.734;4.232;2023-11-19T07:10:26;11.70;99.90
25652;DHT22;13508;50.734;4.232;2023-11-19T07:13:30;11.70;99.90
25652;DHT22;13508;50.734;4.232;2023-11-19T07:16:35;11.70;99.90
25652;DHT22;13508;50.734;4.232;2023-11-19T07:19:40;11.60;99.90
25652;DHT22;13508;50.734;4.232;2023-11-19T07:22:46;11.60;99.90
25652;DHT22;13508;50.734;4.232;2023-11-19T07:25:50;11.50;99.90
25652;DHT22;13508;50.734;4.232;2023-11-19T07:28:56;11.50;99.90
25652;DHT22;13508;50.734;4.232;2023-11-19T07:32:00;11.50;99.90
25652;DHT22;13508;50.734;4.232;2023-11-19T07:35:05;11.50;99.90
25652;DHT22;13508;50.734;4.232;2023-11-19T07:38:08;11.50;99.90
25652;DHT22;13508;50.734;4.232;2023-11-19T07:41:12;11.50;99.90
25652;DHT22;13508;50.734;4.232;2023-11-19T07:44:16;11.60;99.90
25652;DHT22;13508;50.734;4.232;2023-11-19T07:47:20;11.60;99.90
25652;DHT22;13508;50.734;4.232;2023-11-19T07:50:26;11.60;99.90
25652;DHT22;13508;50.734;4.232;2023-11-19T07:53:29;11.60;99.90
25652;DHT22;13508;50.734;4.232;2023-11-19T07:56:33;11.60;99.90
25652;DHT22;13508;50.734;4.232;2023-11-19T07:59:40;11.60;99.90
25652;DHT22;13508;50.734;4.232;2023-11-19T08:02:43;11.70;99.90
25652;DHT22;13508;50.734;4.232;2023-11-19T08:05:46;11.80;99.90
25652;DHT22;13508;50.734;4.232;2023-11-19T08:08:50;11.80;99.90
25652;DHT22;13508;50.734;4.232;2023-11-19T08:11:53;11.90;99.90
25652;DHT22;13508;50.734;4.232;2023-11-19T08:14:59;11.90;99.90
25652;DHT22;13508;50.734;4.232;2023-11-19T08:18:02;12.00;99.90
25652;DHT22;13508;50.734;4.232;2023-11-19T08:21:06;12.00;99.90
25652;DHT22;13508;50.734;4.232;2023-11-19T08:24:10;12.20;99.90
25652;DHT22;13508;50.734;4.232;2023-11-19T08:27:16;12.30;99.90
25652;DHT22;13508;50.734;4.232;2023-11-19T08:30:20;12.50;99.90
25652;DHT22;13508;50.734;4.232;2023-11-19T08:33:23;12.40;99.90
25652;DHT22;13508;50.734;4.232;2023-11-19T08:36:30;12.40;99.90
25652;DHT22;13508;50.734;4.232;2023-11-19T08:39:34;12.40;99.90
25652;DHT22;13508;50.734;4.232;2023-11-19T08:42:41;12.50;99.90
25652;DHT22;13508;50.734;4.232;2023-11-19T08:45:44;12.50;99.90
25652;DHT22;13508;50.734;4.232;2023-11-19T08:48:48;12.50;99.90
25652;DHT22;13508;50.734;4.232;2023-11-19T08:51:54;12.40;99.90
25652;DHT22;13508;50.734;4.232;2023-11-19T08:54:58;12.40;99.90
25652;DHT22;13508;50.734;4.232;2023-11-19T08:58:01;12.50;99.90
25652;DHT22;13508;50.734;4.232;2023-11-19T09:01:06;12.40;99.90
25652;DHT22;13508;50.734;4.232;2023-11-19T09:04:09;12.40;99.90
25652;DHT22;13508;50.734;4.232;2023-11-19T09:07:13;12.40;99.90
25652;DHT22;13508;50.734;4.232;2023-11-19T09:10:17;12.40;99.90
25652;DHT22;13508;50.734;4.232;2023-11-19T09:13:20;12.40;99.90
25652;DHT22;13508;50.734;4.232;2023-11-19T09:16:25;12.30;99.90
25652;DHT22;13508;50.734;4.232;2023-11-19T09:19:32;12.20;99.90
25652;DHT22;13508;50.734;4.232;2023-11-19T09:22:38;12.20;99.90
25652;DHT22;13508;50.734;4.232;2023-11-19T09:25:42;12.30;99.90
25652;DHT22;13508;50.734;4.232;2023-11-19T09:28:45;12.40;99.90
25652;DHT22;13508;50.734;4.232;2023-11-19T09:31:52;12.40;99.90
25652;DHT22;13508;50.734;4.232;2023-11-19T09:34:55;12.30;99.90
25652;DHT22;13508;50.734;4.232;2023-11-19T09:37:59;12.40;99.90
25652;DHT22;13508;50.734;4.232;2023-11-19T09:41:06;12.40;99.90
25652;DHT22;13508;50.734;4.232;2023-11-19T09:44:15;12.50;99.90
25652;DHT22;13508;50.734;4.232;2023-11-19T09:47:21;12.40;99.90
25652;DHT22;13508;50.734;4.232;2023-11-19T09:50:25;12.50;99.90
25652;DHT22;13508;50.734;4.232;2023-11-19T09:53:28;12.40;99.90
25652;DHT22;13508;50.734;4.232;2023-11-19T09:56:33;12.40;99.90
25652;DHT22;13508;50.734;4.232;2023-11-19T09:59:38;12.50;99.90
25652;DHT22;13508;50.734;4.232;2023-11-19T10:02:43;12.60;99.90
25652;DHT22;13508;50.734;4.232;2023-11-19T10:05:51;12.70;99.90
25652;DHT22;13508;50.734;4.232;2023-11-19T10:08:57;12.80;99.90
25652;DHT22;13508;50.734;4.232;2023-11-19T10:12:00;12.90;99.90
25652;DHT22;13508;50.734;4.232;2023-11-19T10:15:21;13.00;99.90
25652;DHT22;13508;50.734;4.232;2023-11-19T10:18:28;13.00;99.90
25652;DHT22;13508;50.734;4.232;2023-11-19T10:21:33;13.00;99.90
25652;DHT22;13508;50.734;4.232;2023-11-19T10:24:37;13.10;99.90
25652;DHT22;13508;50.734;4.232;2023-11-19T10:27:43;13.10;99.90
25652;DHT22;13508;50.734;4.232;2023-11-19T10:30:48;13.00;99.90
25652;DHT22;13508;50.734;4.232;2023-11-19T10:33:52;13.00;99.90
25652;DHT22;13508;50.734;4.232;2023-11-19T10:36:56;13.20;99.90
25652;DHT22;13508;50.734;4.232;2023-11-19T10:40:00;13.30;99.90
25652;DHT22;13508;50.734;4.232;2023-11-19T10:43:03;13.30;99.90
25652;DHT22;13508;50.734;4.232;2023-11-19T10:46:15;13.50;99.90
25652;DHT22;13508;50.734;4.232;2023-11-19T10:49:26;13.50;99.90
25652;DHT22;13508;50.734;4.232;2023-11-19T10:52:30;13.50;99.90
25652;DHT22;13508;50.734;4.232;2023-11-19T10:55:35;13.60;99.90
25652;DHT22;13508;50.734;4.232;2023-11-19T10:58:44;13.70;99.90
25652;DHT22;13508;50.734;4.232;2023-11-19T11:01:53;13.40;99.90
25652;DHT22;13508;50.734;4.232;2023-11-19T11:04:58;13.30;99.90
25652;DHT22;13508;50.734;4.232;2023-11-19T11:08:04;13.10;99.90
25652;DHT22;13508;50.734;4.232;2023-11-19T11:11:12;13.10;99.90
25652;DHT22;13508;50.734;4.232;2023-11-19T11:14:20;13.10;99.90
25652;DHT22;13508;50.734;4.232;2023-11-19T11:17:28;13.00;99.90
25652;DHT22;13508;50.734;4.232;2023-11-19T11:20:35;12.90;99.90
25652;DHT22;13508;50.734;4.232;2023-11-19T11:24:36;13.00;99.90
25652;DHT22;13508;50.734;4.232;2023-11-19T11:28:00;13.50;99.90
25652;DHT22;13508;50.734;4.232;2023-11-19T11:31:23;13.90;99.90
25652;DHT22;13508;50.734;4.232;2023-11-19T11:34:51;14.70;99.90
25652;DHT22;13508;50.734;4.232;2023-11-19T11:38:03;15.40;99.90
25652;DHT22;13508;50.734;4.232;2023-11-19T11:41:20;15.10;99.90
25652;DHT22;13508;50.734;4.232;2023-11-19T11:48:15;16.10;99.90
25652;DHT22;13508;50.734;4.232;2023-11-19T11:54:47;15.90;99.90
25652;DHT22;13508;50.734;4.232;2023-11-19T11:57:52;15.70;99.90
25652;DHT22;13508;50.734;4.232;2023-11-19T12:00:57;15.60;99.90
25652;DHT22;13508;50.734;4.232;2023-11-19T12:04:01;14.40;99.90
25652;DHT22;13508;50.734;4.232;2023-11-19T12:07:21;14.30;99.90
25652;DHT22;13508;50.734;4.232;2023-11-19T12:10:25;14.20;99.90
25652;DHT22;13508;50.734;4.232;2023-11-19T12:13:53;14.00;99.90
25652;DHT22;13508;50.734;4.232;2023-11-19T12:17:12;13.70;99.90
25652;DHT22;13508;50.734;4.232;2023-11-19T12:20:27;13.80;99.90
25652;DHT22;13508;50.734;4.232;2023-11-19T12:23:34;13.70;99.90
25652;DHT22;13508;50.734;4.232;2023-11-19T12:26:38;13.60;99.90
25652;DHT22;13508;50.734;4.232;2023-11-19T12:29:42;13.60;99.90
25652;DHT22;13508;50.734;4.232;2023-11-19T12:32:50;13.80;99.90
25652;DHT22;13508;50.734;4.232;2023-11-19T12:35:54;13.90;99.90
25652;DHT22;13508;50.734;4.232;2023-11-19T12:38:58;13.90;99.90
25652;DHT22;13508;50.734;4.232;2023-11-19T12:42:01;13.70;99.90
25652;DHT22;13508;50.734;4.232;2023-11-19T12:45:06;13.60;99.90
25652;DHT22;13508;50.734;4.232;2023-11-19T12:48:09;13.70;99.90
25652;DHT22;13508;50.734;4.232;2023-11-19T12:51:14;14.20;99.90
25652;DHT22;13508;50.734;4.232;2023-11-19T12:54:17;14.30;99.90
25652;DHT22;13508;50.734;4.232;2023-11-19T12:57:20;14.30;99.90
25652;DHT22;13508;50.734;4.232;2023-11-19T13:00:26;13.90;99.90
25652;DHT22;13508;50.734;4.232;2023-11-19T13:03:35;13.90;99.90
25652;DHT22;13508;50.734;4.232;2023-11-19T13:06:45;13.80;99.90
25652;DHT22;13508;50.734;4.232;2023-11-19T13:09:49;13.50;99.90
25652;DHT22;13508;50.734;4.232;2023-11-19T13:13:00;13.30;99.90
25652;DHT22;13508;50.734;4.232;2023-11-19T13:16:05;13.10;99.90
25652;DHT22;13508;50.734;4.232;2023-11-19T13:19:10;12.90;99.90
25652;DHT22;13508;50.734;4.232;2023-11-19T13:22:14;12.90;99.90
25652;DHT22;13508;50.734;4.232;2023-11-19T13:25:18;12.90;99.90
25652;DHT22;13508;50.734;4.232;2023-11-19T13:28:21;12.80;99.90
25652;DHT22;13508;50.734;4.232;2023-11-19T13:31:26;12.80;99.90
25652;DHT22;13508;50.734;4.232;2023-11-19T13:34:29;12.80;99.90
25652;DHT22;13508;50.734;4.232;2023-11-19T13:37:33;12.90;99.90
25652;DHT22;13508;50.734;4.232;2023-11-19T13:40:36;13.10;99.90
25652;DHT22;13508;50.734;4.232;2023-11-19T13:43:40;13.10;99.90
25652;DHT22;13508;50.734;4.232;2023-11-19T13:46:46;13.40;99.90
25652;DHT22;13508;50.734;4.232;2023-11-19T13:49:50;13.30;99.90
25652;DHT22;13508;50.734;4.232;2023-11-19T13:52:53;13.30;99.90
25652;DHT22;13508;50.734;4.232;2023-11-19T13:55:56;13.30;99.90
25652;DHT22;13508;50.734;4.232;2023-11-19T13:59:07;13.30;99.90
25652;DHT22;13508;50.734;4.232;2023-11-19T14:02:12;13.30;99.90
25652;DHT22;13508;50.734;4.232;2023-11-19T14:05:16;13.20;99.90
25652;DHT22;13508;50.734;4.232;2023-11-19T14:08:23;13.20;99.90
25652;DHT22;13508;50.734;4.232;2023-11-19T14:11:27;13.40;99.90
25652;DHT22;13508;50.734;4.232;2023-11-19T14:14:30;13.50;99.90
25652;DHT22;13508;50.734;4.232;2023-11-19T14:17:34;13.50;99.90
25652;DHT22;13508;50.734;4.232;2023-11-19T14:20:37;13.50;99.90
25652;DHT22;13508;50.734;4.232;2023-11-19T14:23:42;13.20;99.90
25652;DHT22;13508;50.734;4.232;2023-11-19T14:26:48;13.10;99.90
25652;DHT22;13508;50.734;4.232;2023-11-19T14:29:52;13.10;99.90
25652;DHT22;13508;50.734;4.232;2023-11-19T14:32:57;13.20;99.90
25652;DHT22;13508;50.734;4.232;2023-11-19T14:36:01;13.20;99.90
25652;DHT22;13508;50.734;4.232;2023-11-19T14:39:05;13.20;99.90
25652;DHT22;13508;50.734;4.232;2023-11-19T14:42:10;13.00;99.90
25652;DHT22;13508;50.734;4.232;2023-11-19T14:45:13;13.00;99.90
25652;DHT22;13508;50.734;4.232;2023-11-19T14:48:17;12.90;99.90
25652;DHT22;13508;50.734;4.232;2023-11-19T14:51:21;13.00;99.90
25652;DHT22;13508;50.734;4.232;2023-11-19T14:54:24;12.90;99.90
25652;DHT22;13508;50.734;4.232;2023-11-19T14:57:31;13.10;99.90
25652;DHT22;13508;50.734;4.232;2023-11-19T15:00:35;13.10;99.90
25652;DHT22;13508;50.734;4.232;2023-11-19T15:03:38;13.00;99.90
25652;DHT22;13508;50.734;4.232;2023-11-19T15:06:41;13.00;99.90
25652;DHT22;13508;50.734;4.232;2023-11-19T15:09:45;13.10;99.90
25652;DHT22;13508;50.734;4.232;2023-11-19T15:12:48;13.10;99.90
25652;DHT22;13508;50.734;4.232;2023-11-19T15:15:52;13.10;99.90
25652;DHT22;13508;50.734;4.232;2023-11-19T15:18:56;13.00;99.90
25652;DHT22;13508;50.734;4.232;2023-11-19T15:22:02;13.20;99.90
25652;DHT22;13508;50.734;4.232;2023-11-19T15:25:09;13.10;99.90
25652;DHT22;13508;50.734;4.232;2023-11-19T15:28:13;13.10;99.90
25652;DHT22;13508;50.734;4.232;2023-11-19T15:31:17;13.00;99.90
25652;DHT22;13508;50.734;4.232;2023-11-19T15:34:20;13.10;99.90
25652;DHT22;13508;50.734;4.232;2023-11-19T15:37:26;13.10;99.90
25652;DHT22;13508;50.734;4.232;2023-11-19T15:40:32;13.10;99.90
25652;DHT22;13508;50.734;4.232;2023-11-19T15:43:36;13.10;99.90
25652;DHT22;13508;50.734;4.232;2023-11-19T15:46:42;13.10;99.90
25652;DHT22;13508;50.734;4.232;2023-11-19T15:49:47;13.10;99.90
25652;DHT22;13508;50.734;4.232;2023-11-19T15:52:58;13.00;99.90
25652;DHT22;13508;50.734;4.232;2023-11-19T16:09:26;12.20;99.90
25652;DHT22;13508;50.734;4.232;2023-11-19T16:12:32;12.20;99.90
25652;DHT22;13508;50.734;4.232;2023-11-19T16:15:38;12.20;99.90
25652;DHT22;13508;50.734;4.232;2023-11-19T16:18:41;12.30;99.90
25652;DHT22;13508;50.734;4.232;2023-11-19T16:21:47;12.20;99.90
25652;DHT22;13508;50.734;4.232;2023-11-19T16:24:51;12.20;99.90
25652;DHT22;13508;50.734;4.232;2023-11-19T16:27:57;12.10;99.90
25652;DHT22;13508;50.734;4.232;2023-11-19T16:31:01;11.90;99.90
25652;DHT22;13508;50.734;4.232;2023-11-19T16:34:04;11.90;99.90
25652;DHT22;13508;50.734;4.232;2023-11-19T16:37:11;11.80;99.90
25652;DHT22;13508;50.734;4.232;2023-11-19T16:40:15;11.70;99.90
25652;DHT22;13508;50.734;4.232;2023-11-19T16:43:19;11.80;99.90
25652;DHT22;13508;50.734;4.232;2023-11-19T16:46:22;11.70;99.90
25652;DHT22;13508;50.734;4.232;2023-11-19T16:49:26;11.80;99.90
25652;DHT22;13508;50.734;4.232;2023-11-19T16:52:32;11.80;99.90
25652;DHT22;13508;50.734;4.232;2023-11-19T16:55:38;11.70;99.90
25652;DHT22;13508;50.734;4.232;2023-11-19T16:58:42;11.60;99.90
25652;DHT22;13508;50.734;4.232;2023-11-19T17:01:46;11.60;99.90
25652;DHT22;13508;50.734;4.232;2023-11-19T17:04:50;11.70;99.90
25652;DHT22;13508;50.734;4.232;2023-11-19T17:07:53;11.70;99.90
25652;DHT22;13508;50.734;4.232;2023-11-19T17:10:58;11.70;99.90
25652;DHT22;13508;50.734;4.232;2023-11-19T17:14:02;11.70;99.90
25652;DHT22;13508;50.734;4.232;2023-11-19T17:17:08;11.70;99.90
25652;DHT22;13508;50.734;4.232;2023-11-19T17:20:12;11.70;99.90
25652;DHT22;13508;50.734;4.232;2023-11-19T17:23:18;11.80;99.90
25652;DHT22;13508;50.734;4.232;2023-11-19T17:26:22;11.80;99.90
25652;DHT22;13508;50.734;4.232;2023-11-19T17:29:25;11.80;99.90
25652;DHT22;13508;50.734;4.232;2023-11-19T17:32:30;11.90;99.90
25652;DHT22;13508;50.734;4.232;2023-11-19T17:35:35;11.80;99.90
25652;DHT22;13508;50.734;4.232;2023-11-19T17:38:39;11.70;99.90
25652;DHT22;13508;50.734;4.232;2023-11-19T17:41:46;11.70;99.90
25652;DHT22;13508;50.734;4.232;2023-11-19T17:44:49;11.60;99.90
25652;DHT22;13508;50.734;4.232;2023-11-19T17:47:56;11.70;99.90
25652;DHT22;13508;50.734;4.232;2023-11-19T17:50:59;11.70;99.90
25652;DHT22;13508;50.734;4.232;2023-11-19T17:54:04;11.70;99.90
25652;DHT22;13508;50.734;4.232;2023-11-19T17:57:07;11.80;99.90
25652;DHT22;13508;50.734;4.232;2023-11-19T18:00:11;11.80;99.90
25652;DHT22;13508;50.734;4.232;2023-11-19T18:03:17;11.90;99.90
25652;DHT22;13508;50.734;4.232;2023-11-19T18:06:25;11.90;99.90
25652;DHT22;13508;50.734;4.232;2023-11-19T18:09:29;11.90;99.90
25652;DHT22;13508;50.734;4.232;2023-11-19T18:12:33;11.90;99.90
25652;DHT22;13508;50.734;4.232;2023-11-19T18:15:37;11.90;99.90
25652;DHT22;13508;50.734;4.232;2023-11-19T18:18:40;11.90;99.90
25652;DHT22;13508;50.734;4.232;2023-11-19T18:21:46;11.90;99.90
25652;DHT22;13508;50.734;4.232;2023-11-19T18:24:50;11.80;99.90
25652;DHT22;13508;50.734;4.232;2023-11-19T18:27:54;11.70;99.90
25652;DHT22;13508;50.734;4.232;2023-11-19T18:30:57;11.80;99.90
25652;DHT22;13508;50.734;4.232;2023-11-19T18:34:02;11.80;99.90
25652;DHT22;13508;50.734;4.232;2023-11-19T18:37:06;11.80;99.90
25652;DHT22;13508;50.734;4.232;2023-11-19T18:40:10;11.80;99.90
25652;DHT22;13508;50.734;4.232;2023-11-19T18:43:14;11.80;99.90
25652;DHT22;13508;50.734;4.232;2023-11-19T18:46:18;11.80;99.90
25652;DHT22;13508;50.734;4.232;2023-11-19T18:49:24;11.80;99.90
25652;DHT22;13508;50.734;4.232;2023-11-19T18:52:27;11.80;99.90
25652;DHT22;13508;50.734;4.232;2023-11-19T18:55:31;11.90;99.90
25652;DHT22;13508;50.734;4.232;2023-11-19T18:58:34;11.80;99.90
25652;DHT22;13508;50.734;4.232;2023-11-19T19:01:38;11.80;99.90
25652;DHT22;13508;50.734;4.232;2023-11-19T19:04:41;11.80;99.90
25652;DHT22;13508;50.734;4.232;2023-11-19T19:07:45;11.80;99.90
25652;DHT22;13508;50.734;4.232;2023-11-19T19:10:49;11.80;99.90
25652;DHT22;13508;50.734;4.232;2023-11-19T19:13:54;11.70;99.90
25652;DHT22;13508;50.734;4.232;2023-11-19T19:16:57;11.60;99.90
25652;DHT22;13508;50.734;4.232;2023-11-19T19:20:01;11.60;99.90
25652;DHT22;13508;50.734;4.232;2023-11-19T19:23:06;11.60;99.90
25652;DHT22;13508;50.734;4.232;2023-11-19T19:26:09;11.60;99.90
25652;DHT22;13508;50.734;4.232;2023-11-19T19:29:13;11.70;99.90
25652;DHT22;13508;50.734;4.232;2023-11-19T19:32:18;11.80;99.90
25652;DHT22;13508;50.734;4.232;2023-11-19T19:35:22;11.90;99.90
25652;DHT22;13508;50.734;4.232;2023-11-19T19:38:31;11.90;99.90
25652;DHT22;13508;50.734;4.232;2023-11-19T19:41:34;11.90;99.90
25652;DHT22;13508;50.734;4.232;2023-11-19T19:44:38;11.90;99.90
25652;DHT22;13508;50.734;4.232;2023-11-19T19:47:42;11.90;99.90
25652;DHT22;13508;50.734;4.232;2023-11-19T19:50:46;11.80;99.90